Time;durP1;ratioP1;P1;durP2;ratioP2;P2;SDS_P1;SDS_P2;PMS_P1;PMS_P2;Temp;Humidity;BMP_temperature;BMP_pressure;BME280_temperature;BME280_humidity;BME280_pressure;Samples;Min_cycle;Max_cycle;Signal;HPM_P1;HPM_P2
2023/07/25 00:00:39;;;;;;;;;;;;;;;;;;5034678;28;20004;-15
2023/07/25 00:03:05;;;;;;;;;;;;;;;;;;5034564;28;19921;-15
2023/07/25 00:05:31;;;;;;;;;;;;;;;;;;5034647;28;19909;-14
2023/07/25 00:07:57;;;;;;;;;;;;;;;;;;5034572;28;20027;-15
2023/07/25 00:10:23;;;;;;;;;;;;;;;;;;5017136;28;19920;-15
2023/07/25 00:12:52;;;;;;;;;;;;;;;;;;5034665;28;20283;-15
2023/07/25 00:15:19;;;;;;;;;;;;;;;;;;5034439;28;19909;-15
2023/07/25 00:17:45;;;;;;;;;;;;;;;;;;5034403;28;19915;-14
2023/07/25 00:20:11;;;;;;;;;;;;;;;;;;5034309;28;19977;-14
2023/07/25 00:22:37;;;;;;;;;;;;;;;;;;5034699;28;19909;-14
2023/07/25 00:25:03;;;;;;;;;;;;;;;;;;5034682;28;19944;-16
2023/07/25 00:27:28;;;;;;;;;;;;;;;;;;5034369;28;19913;-15
2023/07/25 00:29:54;;;;;;;;;;;;;;;;;;5034592;28;20328;-14
2023/07/25 00:32:20;;;;;;;;;;;;;;;;;;5034266;28;20387;-15
2023/07/25 00:34:46;;;;;;;;;;;;;;;;;;5016946;28;20339;-15
2023/07/25 00:37:12;;;;;;;;;;;;;;;;;;5034567;28;19913;-15
2023/07/25 00:39:38;;;;;;;;;;;;;;;;;;5034319;28;19920;-15
2023/07/25 00:42:04;;;;;;;;;;;;;;;;;;5034249;28;19910;-15
2023/07/25 00:44:30;;;;;;;;;;;;;;;;;;5034707;28;19909;-16
2023/07/25 00:46:56;;;;;;;;;;;;;;;;;;5034705;28;20255;-15
2023/07/25 00:49:22;;;;;;;;;;;;;;;;;;5034208;28;20340;-16
2023/07/25 00:51:48;;;;;;;;;;;;;;;;;;5034258;28;20409;-16
2023/07/25 00:54:14;;;;;;;;;;;;;;;;;;5016681;28;19928;-16
2023/07/25 00:56:40;;;;;;;;;;;;;;;;;;5034119;28;19977;-15
2023/07/25 00:59:06;;;;;;;;;;;;;;;;;;5034354;28;19909;-15
2023/07/25 01:01:32;;;;;;;;;;;;;;;;;;5016657;28;19932;-16
2023/07/25 01:03:58;;;;;;;;;;;;;;;;;;5033871;28;19924;-15
2023/07/25 01:06:24;;;;;;;;;;;;;;;;;;5016634;28;19954;-16
2023/07/25 01:08:50;;;;;;;;;;;;;;;;;;5033968;28;20019;-14
2023/07/25 01:11:16;;;;;;;;;;;;;;;;;;5034150;28;19956;-14
2023/07/25 01:13:42;;;;;;;;;;;;;;;;;;5034004;28;20336;-15
2023/07/25 01:16:07;;;;;;;;;;;;;;;;;;5034413;28;19913;-15
2023/07/25 01:18:33;;;;;;;;;;;;;;;;;;5033963;28;19917;-15
2023/07/25 01:20:59;;;;;;;;;;;;;;;;;;5034472;28;19909;-16
2023/07/25 01:23:25;;;;;;;;;;;;;;;;;;5034109;28;19909;-15
2023/07/25 01:25:51;;;;;;;;;;;;;;;;;;5034155;28;20285;-14
2023/07/25 01:28:17;;;;;;;;;;;;;;;;;;5034012;28;19913;-14
2023/07/25 01:30:43;;;;;;;;;;;;;;;;;;5035358;28;20366;-15
2023/07/25 01:33:09;;;;;;;;;;;;;;;;;;5037314;28;19909;-15
2023/07/25 01:35:35;;;;;;;;;;;;;;;;;;5037374;28;19953;-16
2023/07/25 01:38:01;;;;;;;;;;;;;;;;;;5037337;28;19916;-14
2023/07/25 01:40:27;;;;;;;;;;;;;;;;;;5037257;28;19909;-16
2023/07/25 01:42:53;;;;;;;;;;;;;;;;;;5037379;28;19920;-16
2023/07/25 01:45:19;;;;;;;;;;;;;;;;;;5037062;28;19909;-14
2023/07/25 01:47:45;;;;;;;;;;;;;;;;;;5037285;28;19914;-13
2023/07/25 01:50:11;;;;;;;;;;;;;;;;;;5037274;28;19936;-14
2023/07/25 01:52:37;;;;;;;;;;;;;;;;;;5019509;28;19909;-14
2023/07/25 01:55:02;;;;;;;;;;;;;;;;;;5019464;28;19917;-14
2023/07/25 01:57:28;;;;;;;;;;;;;;;;;;5036898;28;19913;-15
2023/07/25 01:59:54;;;;;;;;;;;;;;;;;;5036841;28;19909;-14
2023/07/25 02:02:20;;;;;;;;;;;;;;;;;;5036744;28;19956;-15
2023/07/25 02:04:46;;;;;;;;;;;;;;;;;;5037032;28;19913;-15
2023/07/25 02:07:12;;;;;;;;;;;;;;;;;;5036668;28;19928;-15
2023/07/25 02:09:38;;;;;;;;;;;;;;;;;;5037234;28;20324;-15
2023/07/25 02:12:05;;;;;;;;;;;;;;;;;;5036693;28;20362;-16
2023/07/25 02:14:31;;;;;;;;;;;;;;;;;;5036838;28;20298;-16
2023/07/25 02:16:57;;;;;;;;;;;;;;;;;;5037014;28;19916;-16
2023/07/25 02:19:23;;;;;;;;;;;;;;;;;;5036549;28;19916;-15
2023/07/25 02:21:49;;;;;;;;;;;;;;;;;;5036438;28;20332;-15
2023/07/25 02:24:15;;;;;;;;;;;;;;;;;;5036681;28;19958;-15
2023/07/25 02:26:41;;;;;;;;;;;;;;;;;;5036404;28;19917;-15
2023/07/25 02:29:06;;;;;;;;;;;;;;;;;;5036559;28;20000;-16
2023/07/25 02:31:32;;;;;;;;;;;;;;;;;;5036529;28;19909;-15
2023/07/25 02:33:58;;;;;;;;;;;;;;;;;;5036124;28;19996;-15
2023/07/25 02:36:24;;;;;;;;;;;;;;;;;;5036252;28;20000;-14
2023/07/25 02:38:50;;;;;;;;;;;;;;;;;;5036393;28;19959;-15
2023/07/25 02:41:16;;;;;;;;;;;;;;;;;;5035678;28;19910;-16
2023/07/25 02:43:42;;;;;;;;;;;;;;;;;;5017903;28;20058;-15
2023/07/25 02:46:08;;;;;;;;;;;;;;;;;;5018465;28;19970;-14
2023/07/25 02:48:34;;;;;;;;;;;;;;;;;;5036173;28;19913;-16
2023/07/25 02:51:00;;;;;;;;;;;;;;;;;;5035914;28;19909;-15
2023/07/25 02:53:26;;;;;;;;;;;;;;;;;;5035846;28;19916;-14
2023/07/25 02:55:53;;;;;;;;;;;;;;;;;;5035762;28;19913;-15
2023/07/25 02:58:19;;;;;;;;;;;;;;;;;;5036057;28;20203;-14
2023/07/25 03:00:47;;;;;;;;;;;;;;;;;;5036048;28;19919;-15
2023/07/25 03:03:13;;;;;;;;;;;;;;;;;;5018012;28;20120;-16
2023/07/25 03:05:39;;;;;;;;;;;;;;;;;;5035669;28;20312;-14
2023/07/25 03:08:05;;;;;;;;;;;;;;;;;;5035864;28;19920;-15
2023/07/25 03:10:31;;;;;;;;;;;;;;;;;;5035773;28;20019;-15
2023/07/25 03:12:57;;;;;;;;;;;;;;;;;;5035443;28;20362;-14
2023/07/25 03:15:23;;;;;;;;;;;;;;;;;;5035469;28;20343;-15
2023/07/25 03:17:49;;;;;;;;;;;;;;;;;;5035672;28;19909;-14
2023/07/25 03:20:15;;;;;;;;;;;;;;;;;;5035615;28;19909;-15
2023/07/25 03:22:41;;;;;;;;;;;;;;;;;;5035216;28;20208;-15
2023/07/25 03:25:07;;;;;;;;;;;;;;;;;;5035495;28;19909;-15
2023/07/25 03:27:33;;;;;;;;;;;;;;;;;;5035180;28;19975;-16
2023/07/25 03:29:59;;;;;;;;;;;;;;;;;;5035447;28;19909;-13
2023/07/25 03:32:25;;;;;;;;;;;;;;;;;;5035046;28;19939;-14
2023/07/25 03:34:51;;;;;;;;;;;;;;;;;;5035381;28;19909;-15
2023/07/25 03:37:16;;;;;;;;;;;;;;;;;;5034984;28;19909;-14
2023/07/25 03:39:42;;;;;;;;;;;;;;;;;;5034965;28;20264;-15
2023/07/25 03:42:08;;;;;;;;;;;;;;;;;;5034923;28;19909;-14
2023/07/25 03:44:34;;;;;;;;;;;;;;;;;;5034839;28;20332;-15
2023/07/25 03:47:00;;;;;;;;;;;;;;;;;;5017302;28;19917;-15
2023/07/25 03:49:26;;;;;;;;;;;;;;;;;;5034796;28;19940;-15
2023/07/25 03:51:52;;;;;;;;;;;;;;;;;;5017354;28;19909;-17
2023/07/25 03:54:21;;;;;;;;;;;;;;;;;;5035246;28;19920;-31
2023/07/25 03:56:47;;;;;;;;;;;;;;;;;;5035535;28;19909;-17
2023/07/25 03:59:13;;;;;;;;;;;;;;;;;;5034520;28;19916;-17
2023/07/25 04:01:39;;;;;;;;;;;;;;;;;;5017096;28;19994;-16
2023/07/25 04:04:05;;;;;;;;;;;;;;;;;;5035027;28;19932;-15
2023/07/25 04:06:31;;;;;;;;;;;;;;;;;;5034654;28;19916;-15
2023/07/25 04:08:57;;;;;;;;;;;;;;;;;;5034745;28;19944;-15
2023/07/25 04:11:23;;;;;;;;;;;;;;;;;;5034558;28;19909;-17
2023/07/25 04:13:49;;;;;;;;;;;;;;;;;;5034559;28;20356;-20
2023/07/25 04:16:14;;;;;;;;;;;;;;;;;;5034609;28;19938;-18
2023/07/25 04:18:40;;;;;;;;;;;;;;;;;;5017664;28;19909;-16
2023/07/25 04:21:06;;;;;;;;;;;;;;;;;;5034496;28;19921;-16
2023/07/25 04:23:32;;;;;;;;;;;;;;;;;;5034539;28;19960;-16
2023/07/25 04:25:58;;;;;;;;;;;;;;;;;;5034617;28;19913;-16
2023/07/25 04:28:24;;;;;;;;;;;;;;;;;;5034269;28;20008;-15
2023/07/25 04:30:50;;;;;;;;;;;;;;;;;;5034844;28;19910;-15
2023/07/25 04:33:16;;;;;;;;;;;;;;;;;;5034104;28;19909;-15
2023/07/25 04:35:45;;;;;;;;;;;;;;;;;;5034620;28;19917;-16
2023/07/25 04:38:11;;;;;;;;;;;;;;;;;;5034096;28;19910;-15
2023/07/25 04:40:37;;;;;;;;;;;;;;;;;;5034148;28;20011;-15
2023/07/25 04:43:02;;;;;;;;;;;;;;;;;;5033930;28;19909;-16
2023/07/25 04:45:28;;;;;;;;;;;;;;;;;;5034596;28;19913;-16
2023/07/25 04:47:54;;;;;;;;;;;;;;;;;;5034099;28;19956;-15
2023/07/25 04:50:20;;;;;;;;;;;;;;;;;;5034431;28;19909;-16
2023/07/25 04:52:46;;;;;;;;;;;;;;;;;;5034392;28;20240;-15
2023/07/25 04:55:12;;;;;;;;;;;;;;;;;;5034016;28;19987;-16
2023/07/25 04:57:38;;;;;;;;;;;;;;;;;;5033996;28;19928;-15
2023/07/25 05:00:04;;;;;;;;;;;;;;;;;;5034364;28;19917;-15
2023/07/25 05:02:30;;;;;;;;;;;;;;;;;;5033724;28;19909;-14
2023/07/25 05:04:56;;;;;;;;;;;;;;;;;;5017156;28;20283;-15
2023/07/25 05:07:22;;;;;;;;;;;;;;;;;;5037486;28;19913;-14
2023/07/25 05:09:48;;;;;;;;;;;;;;;;;;5037805;28;19996;-17
2023/07/25 05:12:14;;;;;;;;;;;;;;;;;;5037798;28;19920;-17
2023/07/25 05:14:40;;;;;;;;;;;;;;;;;;5037596;28;20340;-16
2023/07/25 05:17:06;;;;;;;;;;;;;;;;;;5037853;28;19971;-15
2023/07/25 05:19:32;;;;;;;;;;;;;;;;;;5037415;28;19916;-15
2023/07/25 05:21:58;;;;;;;;;;;;;;;;;;5037308;28;20418;-16
2023/07/25 05:24:24;;;;;;;;;;;;;;;;;;5037544;28;19909;-14
2023/07/25 05:26:50;;;;;;;;;;;;;;;;;;5037228;28;19909;-15
2023/07/25 05:29:16;;;;;;;;;;;;;;;;;;5037165;28;19978;-17
2023/07/25 05:31:42;;;;;;;;;;;;;;;;;;5037797;28;20394;-16
2023/07/25 05:34:08;;;;;;;;;;;;;;;;;;5020192;28;20269;-15
2023/07/25 05:36:34;;;;;;;;;;;;;;;;;;5037372;28;19916;-14
2023/07/25 05:39:00;;;;;;;;;;;;;;;;;;5037348;28;19909;-14
2023/07/25 05:41:26;;;;;;;;;;;;;;;;;;5020060;28;19938;-16
2023/07/25 05:43:52;;;;;;;;;;;;;;;;;;5037251;28;19910;-27
2023/07/25 05:46:18;;;;;;;;;;;;;;;;;;5037511;28;19917;-21
2023/07/25 05:48:44;;;;;;;;;;;;;;;;;;5037100;28;19913;-15
2023/07/25 05:51:10;;;;;;;;;;;;;;;;;;5037183;28;19909;-15
2023/07/25 05:53:36;;;;;;;;;;;;;;;;;;5019394;28;19909;-17
2023/07/25 05:56:02;;;;;;;;;;;;;;;;;;5037149;28;19980;-15
2023/07/25 05:58:27;;;;;;;;;;;;;;;;;;5019435;28;19919;-15
2023/07/25 06:00:53;;;;;;;;;;;;;;;;;;5036767;28;19909;-15
2023/07/25 06:03:19;;;;;;;;;;;;;;;;;;5036334;28;20356;-16
2023/07/25 06:05:45;;;;;;;;;;;;;;;;;;5037291;28;19909;-16
2023/07/25 06:08:11;;;;;;;;;;;;;;;;;;5036516;28;20389;-15
2023/07/25 06:10:38;;;;;;;;;;;;;;;;;;5019213;28;19913;-16
2023/07/25 06:13:04;;;;;;;;;;;;;;;;;;5036342;28;19920;-18
2023/07/25 06:15:30;;;;;;;;;;;;;;;;;;5036284;28;19909;-16
2023/07/25 06:17:56;;;;;;;;;;;;;;;;;;5036154;28;19920;-17
2023/07/25 06:20:22;;;;;;;;;;;;;;;;;;5036258;28;20289;-18
2023/07/25 06:22:48;;;;;;;;;;;;;;;;;;5036029;28;20017;-17
2023/07/25 06:25:15;;;;;;;;;;;;;;;;;;5018454;28;19909;-16
2023/07/25 06:27:41;;;;;;;;;;;;;;;;;;5035960;28;19924;-15
2023/07/25 06:30:07;;;;;;;;;;;;;;;;;;5036454;28;19913;-15
2023/07/25 06:32:34;;;;;;;;;;;;;;;;;;5018413;28;19952;-15
2023/07/25 06:35:00;;;;;;;;;;;;;;;;;;5035944;28;20366;-15
2023/07/25 06:37:26;;;;;;;;;;;;;;;;;;5036302;28;19913;-15
2023/07/25 06:39:52;;;;;;;;;;;;;;;;;;5018747;28;19975;-16
2023/07/25 06:42:18;;;;;;;;;;;;;;;;;;5036242;28;19924;-16
2023/07/25 06:44:44;;;;;;;;;;;;;;;;;;5036051;28;19909;-17
2023/07/25 06:47:10;;;;;;;;;;;;;;;;;;5035931;28;19928;-17
2023/07/25 06:49:35;;;;;;;;;;;;;;;;;;5036026;28;19909;-15
2023/07/25 06:52:01;;;;;;;;;;;;;;;;;;5036428;28;19909;-16
2023/07/25 06:54:28;;;;;;;;;;;;;;;;;;5018541;28;20299;-16
2023/07/25 06:56:54;;;;;;;;;;;;;;;;;;5035904;28;19909;-18
2023/07/25 06:59:19;;;;;;;;;;;;;;;;;;5036145;28;19920;-15
2023/07/25 07:01:45;;;;;;;;;;;;;;;;;;5035798;28;20015;-15
2023/07/25 07:04:11;;;;;;;;;;;;;;;;;;5035496;28;19932;-20
2023/07/25 07:06:37;;;;;;;;;;;;;;;;;;5035647;28;19909;-17
2023/07/25 07:09:03;;;;;;;;;;;;;;;;;;5017856;28;19959;-15
2023/07/25 07:11:29;;;;;;;;;;;;;;;;;;5035808;28;19909;-17
2023/07/25 07:13:55;;;;;;;;;;;;;;;;;;5035656;28;20367;-16
2023/07/25 07:16:21;;;;;;;;;;;;;;;;;;5035782;28;20209;-16
2023/07/25 07:18:47;;;;;;;;;;;;;;;;;;5035475;28;20010;-17
2023/07/25 07:21:13;;;;;;;;;;;;;;;;;;5017838;28;19909;-15
2023/07/25 07:23:39;;;;;;;;;;;;;;;;;;5035234;28;19909;-15
2023/07/25 07:26:06;;;;;;;;;;;;;;;;;;5035196;28;19935;-15
2023/07/25 07:28:32;;;;;;;;;;;;;;;;;;5034742;28;19917;-14
2023/07/25 07:30:58;;;;;;;;;;;;;;;;;;5035546;28;20386;-14
2023/07/25 07:33:24;;;;;;;;;;;;;;;;;;5034868;28;20268;-20
2023/07/25 07:35:50;;;;;;;;;;;;;;;;;;5034988;28;19909;-15
2023/07/25 07:38:16;;;;;;;;;;;;;;;;;;5034849;28;19944;-16
2023/07/25 07:40:42;;;;;;;;;;;;;;;;;;5035024;28;20360;-17
2023/07/25 07:43:08;;;;;;;;;;;;;;;;;;5034948;28;20174;-15
2023/07/25 07:45:34;;;;;;;;;;;;;;;;;;5034985;28;20311;-14
2023/07/25 07:48:00;;;;;;;;;;;;;;;;;;5035151;28;19924;-15
2023/07/25 07:50:28;;;;;;;;;;;;;;;;;;5034803;28;20012;-15
2023/07/25 07:52:54;;;;;;;;;;;;;;;;;;5034537;28;19920;-15
2023/07/25 07:55:20;;;;;;;;;;;;;;;;;;5034960;28;20012;-14
2023/07/25 07:57:46;;;;;;;;;;;;;;;;;;5034645;28;20004;-18
2023/07/25 08:00:13;;;;;;;;;;;;;;;;;;5034970;28;19921;-15
2023/07/25 08:02:39;;;;;;;;;;;;;;;;;;5034294;28;19924;-15
2023/07/25 08:05:05;;;;;;;;;;;;;;;;;;5034619;28;19909;-16
2023/07/25 08:07:31;;;;;;;;;;;;;;;;;;5034299;28;20007;-17
2023/07/25 08:09:57;;;;;;;;;;;;;;;;;;5034522;28;19952;-15
2023/07/25 08:12:23;;;;;;;;;;;;;;;;;;5034480;28;19909;-14
2023/07/25 08:14:49;;;;;;;;;;;;;;;;;;5034471;28;19944;-14
2023/07/25 08:17:15;;;;;;;;;;;;;;;;;;5034177;28;20028;-14
2023/07/25 08:19:41;;;;;;;;;;;;;;;;;;5034209;28;19941;-16
2023/07/25 08:22:07;;;;;;;;;;;;;;;;;;5016761;28;19923;-15
2023/07/25 08:24:33;;;;;;;;;;;;;;;;;;5034209;28;19921;-16
2023/07/25 08:26:59;;;;;;;;;;;;;;;;;;5034298;28;19939;-14
2023/07/25 08:29:25;;;;;;;;;;;;;;;;;;5034322;28;19996;-15
2023/07/25 08:31:51;;;;;;;;;;;;;;;;;;5034686;28;20304;-16
2023/07/25 08:34:17;;;;;;;;;;;;;;;;;;5034627;28;19909;-15
2023/07/25 08:36:43;;;;;;;;;;;;;;;;;;5034108;28;19910;-16
2023/07/25 08:39:09;;;;;;;;;;;;;;;;;;5034632;28;19920;-16
2023/07/25 08:41:35;;;;;;;;;;;;;;;;;;5038283;28;20268;-16
2023/07/25 08:44:01;;;;;;;;;;;;;;;;;;5038054;28;19909;-17
2023/07/25 08:46:27;;;;;;;;;;;;;;;;;;5037696;28;19909;-17
2023/07/25 08:48:53;;;;;;;;;;;;;;;;;;5037637;28;19913;-15
2023/07/25 08:51:18;;;;;;;;;;;;;;;;;;5037772;28;19913;-15
2023/07/25 08:53:44;;;;;;;;;;;;;;;;;;5037518;28;20256;-17
2023/07/25 08:56:10;;;;;;;;;;;;;;;;;;5037589;28;19920;-15
2023/07/25 08:58:36;;;;;;;;;;;;;;;;;;5019958;28;20324;-15
2023/07/25 09:01:02;;;;;;;;;;;;;;;;;;5037501;28;19910;-14
2023/07/25 09:03:28;;;;;;;;;;;;;;;;;;5037372;28;19936;-16
2023/07/25 09:05:58;;;;;;;;;;;;;;;;;;5037553;28;19909;-14
2023/07/25 09:08:24;;;;;;;;;;;;;;;;;;5037262;28;20047;-16
2023/07/25 09:10:50;;;;;;;;;;;;;;;;;;5037490;28;19949;-16
2023/07/25 09:13:16;;;;;;;;;;;;;;;;;;5037128;28;19921;-15
2023/07/25 09:15:42;;;;;;;;;;;;;;;;;;5037516;28;20004;-14
2023/07/25 09:18:08;;;;;;;;;;;;;;;;;;5037074;28;20347;-14
2023/07/25 09:20:34;;;;;;;;;;;;;;;;;;5037174;28;19909;-16
2023/07/25 09:23:00;;;;;;;;;;;;;;;;;;5019676;28;19909;-16
2023/07/25 09:25:26;;;;;;;;;;;;;;;;;;5037366;28;19959;-15
2023/07/25 09:27:52;;;;;;;;;;;;;;;;;;5037142;28;19920;-14
2023/07/25 09:30:18;;;;;;;;;;;;;;;;;;5037322;28;19913;-16
2023/07/25 09:32:44;;;;;;;;;;;;;;;;;;5037290;28;20012;-14
2023/07/25 09:35:11;;;;;;;;;;;;;;;;;;5019630;28;20289;-15
2023/07/25 09:37:37;;;;;;;;;;;;;;;;;;5019588;28;20036;-14
2023/07/25 09:40:03;;;;;;;;;;;;;;;;;;5037383;28;19959;-15
2023/07/25 09:42:29;;;;;;;;;;;;;;;;;;5036965;28;19913;-15
2023/07/25 09:44:55;;;;;;;;;;;;;;;;;;5037092;28;19919;-16
2023/07/25 09:47:21;;;;;;;;;;;;;;;;;;5036766;28;20002;-15
2023/07/25 09:49:47;;;;;;;;;;;;;;;;;;5036874;28;19913;-29
2023/07/25 09:52:13;;;;;;;;;;;;;;;;;;5036083;28;19919;-16
2023/07/25 09:54:39;;;;;;;;;;;;;;;;;;5019458;28;20247;-14
2023/07/25 09:57:05;;;;;;;;;;;;;;;;;;5036991;28;19909;-18
2023/07/25 09:59:31;;;;;;;;;;;;;;;;;;5037678;28;19916;-16
2023/07/25 10:01:57;;;;;;;;;;;;;;;;;;5037717;28;20293;-17
2023/07/25 10:04:23;;;;;;;;;;;;;;;;;;5037005;28;19932;-15
2023/07/25 10:06:49;;;;;;;;;;;;;;;;;;5019039;28;19979;-14
2023/07/25 10:09:15;;;;;;;;;;;;;;;;;;5036811;28;19932;-14
2023/07/25 10:11:41;;;;;;;;;;;;;;;;;;5036781;28;19917;-14
2023/07/25 10:14:07;;;;;;;;;;;;;;;;;;5036564;28;19909;-14
2023/07/25 10:16:33;;;;;;;;;;;;;;;;;;5036613;28;19916;-15
2023/07/25 10:19:01;;;;;;;;;;;;;;;;;;5036531;28;19975;-16
2023/07/25 10:21:27;;;;;;;;;;;;;;;;;;5036228;28;19909;-14
2023/07/25 10:23:53;;;;;;;;;;;;;;;;;;5036213;28;19955;-16
2023/07/25 10:26:20;;;;;;;;;;;;;;;;;;5036234;28;19920;-15
2023/07/25 10:28:46;;;;;;;;;;;;;;;;;;5018480;28;19948;-14
2023/07/25 10:31:12;;;;;;;;;;;;;;;;;;5035948;28;19970;-15
2023/07/25 10:33:38;;;;;;;;;;;;;;;;;;5036068;28;19933;-16
2023/07/25 10:36:04;;;;;;;;;;;;;;;;;;5036002;28;19909;-16
2023/07/25 10:38:33;;;;;;;;;;;;;;;;;;5036220;28;19963;-15
2023/07/25 10:40:59;;;;;;;;;;;;;;;;;;5035898;28;19999;-19
2023/07/25 10:43:26;;;;;;;;;;;;;;;;;;5035809;28;20292;-16
2023/07/25 10:45:52;;;;;;;;;;;;;;;;;;5036065;28;19909;-14
2023/07/25 10:48:18;;;;;;;;;;;;;;;;;;5036281;28;19939;-13
2023/07/25 10:50:44;;;;;;;;;;;;;;;;;;5035806;28;19909;-14
2023/07/25 10:53:09;;;;;;;;;;;;;;;;;;5035709;28;19915;-14
2023/07/25 10:55:35;;;;;;;;;;;;;;;;;;5035646;28;19909;-15
2023/07/25 10:58:01;;;;;;;;;;;;;;;;;;5035563;28;19909;-16
2023/07/25 11:00:27;;;;;;;;;;;;;;;;;;5035495;28;19910;-14
2023/07/25 11:02:53;;;;;;;;;;;;;;;;;;5016477;28;19987;-14
2023/07/25 11:05:20;;;;;;;;;;;;;;;;;;5035494;28;20251;-14
2023/07/25 11:07:49;;;;;;;;;;;;;;;;;;5035319;28;19929;-14
2023/07/25 11:10:15;;;;;;;;;;;;;;;;;;5035565;28;20284;-18
2023/07/25 11:12:41;;;;;;;;;;;;;;;;;;5017893;28;19920;-14
2023/07/25 11:15:07;;;;;;;;;;;;;;;;;;5017956;28;19987;-16
2023/07/25 11:17:33;;;;;;;;;;;;;;;;;;5035864;28;20363;-16
2023/07/25 11:19:59;;;;;;;;;;;;;;;;;;5035502;28;19919;-15
2023/07/25 11:22:25;;;;;;;;;;;;;;;;;;5035802;28;19916;-16
2023/07/25 11:25:01;;;;;;;;;;;;;;;;;;5112927;27;20017;-14
2023/07/25 11:27:27;;;;;;;;;;;;;;;;;;5112581;28;19912;-16
2023/07/25 11:29:53;;;;;;;;;;;;;;;;;;5112564;28;19908;-15
2023/07/25 11:32:19;;;;;;;;;;;;;;;;;;5112448;28;20366;-15
2023/07/25 11:34:44;;;;;;;;;;;;;;;;;;5112728;28;19994;-14
2023/07/25 11:37:10;;;;;;;;;;;;;;;;;;5112495;28;19912;-14
2023/07/25 11:39:36;;;;;;;;;;;;;;;;;;5112367;28;20351;-13
2023/07/25 11:42:02;;;;;;;;;;;;;;;;;;5112207;28;19955;-14
2023/07/25 11:44:28;;;;;;;;;;;;;;;;;;5112376;28;19912;-14
2023/07/25 11:46:55;;;;;;;;;;;;;;;;;;5112239;28;19908;-13
2023/07/25 11:49:21;;;;;;;;;;;;;;;;;;5111061;28;19912;-13
2023/07/25 11:51:47;;;;;;;;;;;;;;;;;;5112135;28;20417;-14
2023/07/25 11:54:13;;;;;;;;;;;;;;;;;;5112011;28;19919;-14
2023/07/25 11:56:39;;;;;;;;;;;;;;;;;;5112095;28;19908;-15
2023/07/25 11:59:05;;;;;;;;;;;;;;;;;;5112056;28;20308;-14
2023/07/25 12:01:31;;;;;;;;;;;;;;;;;;5112187;28;19986;-15
2023/07/25 12:04:00;;;;;;;;;;;;;;;;;;5111950;28;19973;-14
2023/07/25 12:06:26;;;;;;;;;;;;;;;;;;5111930;28;19908;-17
2023/07/25 12:08:52;;;;;;;;;;;;;;;;;;5111914;28;20021;-15
2023/07/25 12:11:18;;;;;;;;;;;;;;;;;;5112188;28;19908;-15
2023/07/25 12:13:44;;;;;;;;;;;;;;;;;;5112069;28;19995;-13
2023/07/25 12:16:10;;;;;;;;;;;;;;;;;;5111614;28;19908;-14
2023/07/25 12:18:36;;;;;;;;;;;;;;;;;;5112023;28;19965;-14
2023/07/25 12:21:02;;;;;;;;;;;;;;;;;;5111504;28;20277;-15
2023/07/25 12:23:28;;;;;;;;;;;;;;;;;;5118875;28;20266;-14
2023/07/25 12:25:54;;;;;;;;;;;;;;;;;;5131877;27;19934;-16
2023/07/25 12:28:20;;;;;;;;;;;;;;;;;;5113766;28;19908;-14
2023/07/25 12:30:46;;;;;;;;;;;;;;;;;;5131908;28;20351;-14
2023/07/25 12:33:12;;;;;;;;;;;;;;;;;;5131595;28;19920;-14
2023/07/25 12:35:38;;;;;;;;;;;;;;;;;;5121939;28;19919;-14
2023/07/25 12:38:04;;;;;;;;;;;;;;;;;;5118238;28;19908;-14
2023/07/25 12:40:30;;;;;;;;;;;;;;;;;;5118267;28;20211;-14
2023/07/25 12:42:55;;;;;;;;;;;;;;;;;;5117713;28;20358;-15
2023/07/25 12:45:21;;;;;;;;;;;;;;;;;;5117721;28;19908;-14
2023/07/25 12:47:47;;;;;;;;;;;;;;;;;;5117974;28;20334;-15
2023/07/25 12:50:13;;;;;;;;;;;;;;;;;;5117764;28;20261;-15
2023/07/25 12:52:39;;;;;;;;;;;;;;;;;;5117472;28;19976;-13
2023/07/25 12:55:05;;;;;;;;;;;;;;;;;;5117746;28;19907;-15
2023/07/25 12:57:31;;;;;;;;;;;;;;;;;;5117682;28;19933;-15
2023/07/25 12:59:57;;;;;;;;;;;;;;;;;;5117309;28;19908;-15
2023/07/25 13:02:23;;;;;;;;;;;;;;;;;;5117328;28;20356;-15
2023/07/25 13:04:49;;;;;;;;;;;;;;;;;;5117427;28;19911;-13
2023/07/25 13:07:15;;;;;;;;;;;;;;;;;;5099484;28;19945;-15
2023/07/25 13:09:41;;;;;;;;;;;;;;;;;;5117359;28;19977;-14
2023/07/25 13:12:07;;;;;;;;;;;;;;;;;;5117236;28;19907;-14
2023/07/25 13:14:33;;;;;;;;;;;;;;;;;;5117617;28;19908;-15
2023/07/25 13:16:59;;;;;;;;;;;;;;;;;;5117671;28;20272;-12
2023/07/25 13:19:25;;;;;;;;;;;;;;;;;;5117517;28;19919;-14
2023/07/25 13:21:51;;;;;;;;;;;;;;;;;;5117632;28;20383;-15
2023/07/25 13:24:17;;;;;;;;;;;;;;;;;;5117177;28;19919;-15
2023/07/25 13:26:42;;;;;;;;;;;;;;;;;;5117234;28;19908;-14
2023/07/25 13:29:08;;;;;;;;;;;;;;;;;;5117051;28;19907;-13
2023/07/25 13:31:35;;;;;;;;;;;;;;;;;;5117285;28;20010;-15
2023/07/25 13:34:00;;;;;;;;;;;;;;;;;;5116925;28;19937;-14
2023/07/25 13:36:26;;;;;;;;;;;;;;;;;;5117176;28;19923;-14
2023/07/25 13:38:52;;;;;;;;;;;;;;;;;;5117108;28;19926;-14
2023/07/25 13:41:18;;;;;;;;;;;;;;;;;;5116886;28;20403;-14
2023/07/25 13:43:44;;;;;;;;;;;;;;;;;;5116639;28;19918;-15
2023/07/25 13:46:10;;;;;;;;;;;;;;;;;;5116103;28;19968;-15
2023/07/25 13:48:36;;;;;;;;;;;;;;;;;;5116432;28;19990;-14
2023/07/25 13:51:02;;;;;;;;;;;;;;;;;;5116912;28;20309;-14
2023/07/25 13:53:28;;;;;;;;;;;;;;;;;;5116655;28;19962;-13
2023/07/25 13:55:54;;;;;;;;;;;;;;;;;;5116603;28;20299;-14
2023/07/25 13:58:20;;;;;;;;;;;;;;;;;;5116499;28;20090;-14
2023/07/25 14:00:46;;;;;;;;;;;;;;;;;;5116685;28;20013;-13
2023/07/25 14:03:12;;;;;;;;;;;;;;;;;;5116614;28;19912;-15
2023/07/25 14:05:38;;;;;;;;;;;;;;;;;;5116320;28;20326;-15
2023/07/25 14:08:07;;;;;;;;;;;;;;;;;;5098361;28;19985;-14
2023/07/25 14:10:33;;;;;;;;;;;;;;;;;;5116143;28;20009;-14
2023/07/25 14:12:58;;;;;;;;;;;;;;;;;;5116671;28;19943;-13
2023/07/25 14:15:24;;;;;;;;;;;;;;;;;;5116109;28;19912;-15
2023/07/25 14:17:50;;;;;;;;;;;;;;;;;;5116004;28;19918;-14
2023/07/25 14:20:16;;;;;;;;;;;;;;;;;;5116284;28;19954;-13
2023/07/25 14:22:42;;;;;;;;;;;;;;;;;;5097613;28;19918;-14
2023/07/25 14:25:08;;;;;;;;;;;;;;;;;;5116170;28;20000;-13
2023/07/25 14:27:34;;;;;;;;;;;;;;;;;;5115853;28;19908;-13
2023/07/25 14:30:00;;;;;;;;;;;;;;;;;;5115834;28;20009;-15
2023/07/25 14:32:26;;;;;;;;;;;;;;;;;;5115922;28;19908;-15
2023/07/25 14:34:52;;;;;;;;;;;;;;;;;;5097874;28;20345;-16
2023/07/25 14:37:18;;;;;;;;;;;;;;;;;;5115731;28;19908;-15
2023/07/25 14:39:44;;;;;;;;;;;;;;;;;;5115742;28;19907;-13
2023/07/25 14:42:10;;;;;;;;;;;;;;;;;;5115572;28;19955;-14
2023/07/25 14:44:36;;;;;;;;;;;;;;;;;;5115810;28;19918;-14
2023/07/25 14:47:02;;;;;;;;;;;;;;;;;;5116263;28;19908;-13
2023/07/25 14:49:28;;;;;;;;;;;;;;;;;;5115598;28;19907;-14
2023/07/25 14:51:54;;;;;;;;;;;;;;;;;;5115475;28;19908;-15
2023/07/25 14:54:20;;;;;;;;;;;;;;;;;;5115516;28;20363;-14
2023/07/25 14:56:46;;;;;;;;;;;;;;;;;;5115350;28;19908;-16
2023/07/25 14:59:12;;;;;;;;;;;;;;;;;;5115386;28;19954;-14
2023/07/25 15:01:38;;;;;;;;;;;;;;;;;;5115345;28;19920;-15
2023/07/25 15:04:04;;;;;;;;;;;;;;;;;;5097141;28;19922;-15
2023/07/25 15:06:30;;;;;;;;;;;;;;;;;;5115473;28;19908;-15
2023/07/25 15:08:56;;;;;;;;;;;;;;;;;;5097285;28;20226;-13
2023/07/25 15:11:22;;;;;;;;;;;;;;;;;;5115233;28;19908;-14
2023/07/25 15:13:48;;;;;;;;;;;;;;;;;;5115126;28;19918;-14
2023/07/25 15:16:14;;;;;;;;;;;;;;;;;;5114856;28;19912;-16
2023/07/25 15:18:41;;;;;;;;;;;;;;;;;;5115281;28;20312;-15
2023/07/25 15:21:07;;;;;;;;;;;;;;;;;;5096838;28;19908;-16
2023/07/25 15:23:32;;;;;;;;;;;;;;;;;;5114469;28;19942;-14
2023/07/25 15:25:58;;;;;;;;;;;;;;;;;;5114786;28;20242;-15
2023/07/25 15:28:24;;;;;;;;;;;;;;;;;;5114806;28;19934;-16
2023/07/25 15:30:50;;;;;;;;;;;;;;;;;;5115272;28;20011;-14
2023/07/25 15:33:16;;;;;;;;;;;;;;;;;;5114682;28;19934;-14
2023/07/25 15:35:42;;;;;;;;;;;;;;;;;;5114777;28;20119;-14
2023/07/25 15:38:09;;;;;;;;;;;;;;;;;;5114930;28;19919;-14
2023/07/25 15:40:35;;;;;;;;;;;;;;;;;;5115180;28;19919;-15
2023/07/25 15:43:01;;;;;;;;;;;;;;;;;;5115209;28;19916;-14
2023/07/25 15:45:27;;;;;;;;;;;;;;;;;;5115501;28;20380;-14
2023/07/25 15:47:52;;;;;;;;;;;;;;;;;;5115181;28;20334;-14
2023/07/25 15:50:21;;;;;;;;;;;;;;;;;;5114852;28;19908;-15
2023/07/25 15:52:47;;;;;;;;;;;;;;;;;;5114742;28;19912;-14
2023/07/25 15:55:13;;;;;;;;;;;;;;;;;;5114805;28;20024;-14
2023/07/25 15:57:39;;;;;;;;;;;;;;;;;;5115035;28;19907;-14
2023/07/25 16:00:09;;;;;;;;;;;;;;;;;;5115056;28;19914;-16
2023/07/25 16:02:35;;;;;;;;;;;;;;;;;;5114656;28;19918;-14
2023/07/25 16:05:01;;;;;;;;;;;;;;;;;;5115179;28;20009;-13
2023/07/25 16:07:27;;;;;;;;;;;;;;;;;;5096685;28;19919;-15
2023/07/25 16:09:52;;;;;;;;;;;;;;;;;;5115200;28;19907;-15
2023/07/25 16:12:18;;;;;;;;;;;;;;;;;;5118795;28;20056;-16
2023/07/25 16:14:44;;;;;;;;;;;;;;;;;;5118372;28;19908;-17
2023/07/25 16:17:10;;;;;;;;;;;;;;;;;;5118319;28;19912;-15
2023/07/25 16:19:36;;;;;;;;;;;;;;;;;;5118448;28;19989;-14
2023/07/25 16:22:02;;;;;;;;;;;;;;;;;;5118230;28;19915;-14
2023/07/25 16:24:28;;;;;;;;;;;;;;;;;;5118070;28;20025;-14
2023/07/25 16:26:54;;;;;;;;;;;;;;;;;;5118112;28;19908;-15
2023/07/25 16:29:20;;;;;;;;;;;;;;;;;;5118300;28;19914;-14
2023/07/25 16:31:46;;;;;;;;;;;;;;;;;;5118175;28;19907;-15
2023/07/25 16:34:12;;;;;;;;;;;;;;;;;;5118219;28;19915;-14
2023/07/25 16:36:38;;;;;;;;;;;;;;;;;;5118354;28;19914;-15